createdAt,value
2018-01-25T00:01:38.780Z,96.20
2018-01-25T00:04:06.377Z,96.20
2018-01-25T00:06:33.930Z,96.20
2018-01-25T00:09:02.258Z,95.90
2018-01-25T00:11:29.787Z,95.90
2018-01-25T00:13:57.323Z,96.00
2018-01-25T00:16:24.892Z,95.90
2018-01-25T00:18:52.427Z,96.10
2018-01-25T00:21:20.091Z,95.80
2018-01-25T00:23:48.309Z,95.80
2018-01-25T00:26:16.378Z,95.80
2018-01-25T00:28:43.921Z,95.70
2018-01-25T00:31:13.002Z,95.80
2018-01-25T00:33:40.544Z,95.80
2018-01-25T00:36:08.092Z,95.80
2018-01-25T00:38:35.660Z,95.70
2018-01-25T00:41:03.199Z,95.50
2018-01-25T00:43:30.726Z,95.50
2018-01-25T00:45:58.483Z,95.40
2018-01-25T00:48:26.088Z,95.40
2018-01-25T00:50:53.671Z,95.20
2018-01-25T00:53:21.231Z,95.00
2018-01-25T00:55:48.795Z,94.70
2018-01-25T00:58:16.614Z,94.40
2018-01-25T01:00:44.176Z,94.20
2018-01-25T01:03:11.715Z,94.00
2018-01-25T01:05:40.011Z,94.00
2018-01-25T01:08:07.876Z,93.90
2018-01-25T01:10:35.407Z,93.60
2018-01-25T01:13:02.944Z,93.40
2018-01-25T01:15:30.499Z,93.10
2018-01-25T01:17:58.035Z,92.90
2018-01-25T01:20:25.574Z,92.80
2018-01-25T01:22:53.136Z,92.90
2018-01-25T01:25:20.680Z,92.90
2018-01-25T01:27:48.210Z,93.20
2018-01-25T01:30:17.053Z,93.20
2018-01-25T01:32:45.815Z,93.20
2018-01-25T01:35:14.594Z,93.10
2018-01-25T01:37:42.160Z,93.00
2018-01-25T01:40:10.460Z,92.80
2018-01-25T01:42:38.004Z,92.80
2018-01-25T01:45:05.563Z,92.80
2018-01-25T01:47:33.869Z,92.60
2018-01-25T01:50:01.408Z,92.60
2018-01-25T01:52:29.019Z,92.50
2018-01-25T01:54:56.558Z,92.30
2018-01-25T01:57:24.092Z,92.30
2018-01-25T01:59:51.664Z,92.40
2018-01-25T02:02:19.199Z,92.50
2018-01-25T02:04:46.730Z,92.90
2018-01-25T02:07:27.587Z,93.10
2018-01-25T02:13:02.243Z,92.60
2018-01-25T02:15:29.770Z,93.00
2018-01-25T02:17:57.299Z,93.10
2018-01-25T02:20:24.867Z,93.00
2018-01-25T02:22:52.399Z,92.90
2018-01-25T02:25:19.919Z,92.80
2018-01-25T02:27:47.471Z,92.60
2018-01-25T02:30:16.438Z,92.70
2018-01-25T02:32:43.967Z,92.50
2018-01-25T02:35:12.106Z,92.30
2018-01-25T02:37:39.634Z,92.20
2018-01-25T02:40:07.159Z,92.00
2018-01-25T02:42:34.722Z,92.00
2018-01-25T02:45:02.254Z,92.30
2018-01-25T02:47:29.786Z,92.40
2018-01-25T02:49:57.345Z,92.40
2018-01-25T02:52:24.907Z,92.50
2018-01-25T02:54:53.230Z,92.70
2018-01-25T02:57:21.483Z,92.70
2018-01-25T02:59:49.020Z,92.80
2018-01-25T03:02:16.552Z,92.80
2018-01-25T03:04:44.107Z,92.70
2018-01-25T03:07:12.403Z,92.80
2018-01-25T03:09:39.935Z,92.70
2018-01-25T03:12:08.295Z,93.00
2018-01-25T03:14:35.823Z,92.90
2018-01-25T03:17:03.374Z,92.90
2018-01-25T03:19:31.474Z,92.90
2018-01-25T03:21:59.000Z,93.00
2018-01-25T03:24:26.527Z,92.90
2018-01-25T03:26:54.843Z,92.90
2018-01-25T03:29:22.376Z,92.90
2018-01-25T03:31:50.662Z,92.80
2018-01-25T03:34:18.224Z,92.80
2018-01-25T03:36:46.783Z,92.80
2018-01-25T03:39:15.474Z,92.80
2018-01-25T03:41:44.012Z,92.50
2018-01-25T03:44:11.539Z,92.50
2018-01-25T03:46:39.131Z,92.50
2018-01-25T03:49:06.727Z,92.40
2018-01-25T03:51:34.264Z,92.30
2018-01-25T03:54:01.795Z,92.10
2018-01-25T03:56:29.351Z,92.00
2018-01-25T03:58:56.879Z,91.90
2018-01-25T04:01:24.415Z,91.70
2018-01-25T04:03:52.266Z,91.60
2018-01-25T04:06:19.795Z,91.50
2018-01-25T04:08:47.327Z,91.40
2018-01-25T04:11:16.403Z,91.30
2018-01-25T04:13:43.935Z,91.20
2018-01-25T04:16:11.511Z,91.10
2018-01-25T04:18:39.066Z,90.90
2018-01-25T04:21:06.595Z,90.70
2018-01-25T04:23:34.132Z,90.50
2018-01-25T04:26:01.995Z,90.20
2018-01-25T04:28:29.540Z,90.10
2018-01-25T04:30:57.843Z,89.90
2018-01-25T04:33:25.402Z,89.90
2018-01-25T04:35:52.922Z,89.80
2018-01-25T04:38:21.748Z,90.00
2018-01-25T04:40:49.343Z,89.30
2018-01-25T04:43:16.867Z,88.60
2018-01-25T04:45:44.407Z,88.60
2018-01-25T04:48:12.336Z,87.40
2018-01-25T04:50:39.868Z,87.30
2018-01-25T04:53:07.399Z,86.90
2018-01-25T04:55:34.966Z,86.60
2018-01-25T04:58:02.508Z,86.70
2018-01-25T05:00:30.816Z,86.40
2018-01-25T05:02:58.380Z,86.30
2018-01-25T05:05:25.967Z,87.00
2018-01-25T05:07:53.495Z,86.60
2018-01-25T05:10:21.291Z,86.80
2018-01-25T05:12:48.822Z,87.20
2018-01-25T05:15:16.435Z,87.20
2018-01-25T05:17:45.400Z,86.80
2018-01-25T05:20:24.523Z,86.60
2018-01-25T05:24:37.071Z,88.00
2018-01-25T05:27:04.604Z,88.20
2018-01-25T05:29:32.143Z,88.40
2018-01-25T05:31:59.756Z,88.50
2018-01-25T05:34:27.291Z,89.10
2018-01-25T05:36:54.823Z,89.00
2018-01-25T05:39:23.122Z,88.70
2018-01-25T05:41:50.744Z,88.80
2018-01-25T05:44:19.048Z,89.40
2018-01-25T05:46:46.604Z,89.30
2018-01-25T05:49:26.696Z,89.30
2018-01-25T06:00:39.443Z,89.30
2018-01-25T06:03:06.966Z,90.20
2018-01-25T06:05:35.258Z,90.00
2018-01-25T06:08:02.808Z,90.00
2018-01-25T06:10:30.411Z,89.80
2018-01-25T06:12:57.966Z,89.40
2018-01-25T06:15:25.531Z,88.70
2018-01-25T06:17:53.067Z,88.70
2018-01-25T06:20:20.683Z,88.10
2018-01-25T06:22:48.838Z,87.50
2018-01-25T06:25:16.679Z,87.50
2018-01-25T06:27:44.202Z,87.40
2018-01-25T06:30:12.515Z,87.30
2018-01-25T06:32:40.050Z,87.30
2018-01-25T06:35:07.579Z,86.70
2018-01-25T06:37:35.159Z,86.60
2018-01-25T06:40:04.171Z,86.80
2018-01-25T06:42:31.700Z,86.70
2018-01-25T06:44:59.474Z,86.50
2018-01-25T06:47:27.790Z,85.60
2018-01-25T06:49:55.318Z,85.60
2018-01-25T06:52:22.891Z,85.70
2018-01-25T06:54:50.426Z,86.10
2018-01-25T06:57:18.718Z,85.90
2018-01-25T06:59:47.073Z,86.00
2018-01-25T07:02:16.451Z,86.00
2018-01-25T07:04:43.987Z,85.50
2018-01-25T07:07:12.028Z,85.70
2018-01-25T07:09:39.567Z,85.40
2018-01-25T07:12:07.103Z,86.00
2018-01-25T07:14:34.684Z,85.40
2018-01-25T07:17:02.215Z,86.10
2018-01-25T07:19:29.888Z,86.00
2018-01-25T07:21:57.444Z,85.70
2018-01-25T07:24:24.973Z,85.50
2018-01-25T07:26:52.499Z,85.50
2018-01-25T07:29:20.123Z,85.30
2018-01-25T07:31:47.647Z,85.40
2018-01-25T07:34:16.475Z,85.40
2018-01-25T07:36:44.023Z,85.60
2018-01-25T07:39:11.561Z,85.40
2018-01-25T07:41:39.703Z,85.70
2018-01-25T07:44:08.024Z,85.50
2018-01-25T07:46:35.563Z,85.50
2018-01-25T07:49:03.144Z,85.30
2018-01-25T07:51:31.432Z,85.30
2018-01-25T07:53:58.954Z,85.60
2018-01-25T07:56:26.488Z,85.70
2018-01-25T07:58:54.046Z,85.50
2018-01-25T08:01:21.738Z,85.10
2018-01-25T08:03:49.271Z,85.20
2018-01-25T08:06:17.167Z,85.10
2018-01-25T08:08:44.700Z,84.40
2018-01-25T08:11:12.272Z,84.50
2018-01-25T08:13:40.662Z,85.40
2018-01-25T08:16:13.908Z,85.50
2018-01-25T08:18:41.470Z,85.10
2018-01-25T08:21:09.014Z,84.90
2018-01-25T08:23:38.056Z,84.80
2018-01-25T08:26:05.901Z,84.50
2018-01-25T08:28:33.436Z,84.30
2018-01-25T08:31:00.963Z,84.40
2018-01-25T08:33:29.212Z,84.50
2018-01-25T08:35:56.738Z,84.90
2018-01-25T08:38:24.263Z,83.90
2018-01-25T08:40:51.826Z,83.70
2018-01-25T08:43:20.280Z,83.40
2018-01-25T08:45:47.815Z,82.90
2018-01-25T08:48:17.185Z,82.50
2018-01-25T08:50:44.731Z,82.50
2018-01-25T08:53:12.260Z,80.70
2018-01-25T08:55:40.384Z,77.10
2018-01-25T08:58:07.916Z,72.40
2018-01-25T09:00:35.446Z,66.00
2018-01-25T09:03:03.016Z,63.20
2018-01-25T09:05:30.564Z,61.40
2018-01-25T09:07:58.095Z,55.20
2018-01-25T09:10:25.651Z,51.50
2018-01-25T09:12:53.185Z,49.70
2018-01-25T09:15:20.723Z,48.60
2018-01-25T09:17:48.740Z,47.20
2018-01-25T09:20:16.499Z,45.00
2018-01-25T09:22:44.034Z,42.80
2018-01-25T09:25:11.596Z,41.40
2018-01-25T09:27:39.127Z,42.50
2018-01-25T09:30:06.663Z,39.70
2018-01-25T09:32:34.234Z,38.90
2018-01-25T09:35:01.766Z,37.10
2018-01-25T09:37:29.299Z,36.70
2018-01-25T09:39:57.392Z,37.20
2018-01-25T09:42:24.939Z,36.40
2018-01-25T09:44:52.666Z,36.20
2018-01-25T09:47:20.267Z,36.00
2018-01-25T09:49:47.798Z,37.50
2018-01-25T09:52:15.494Z,38.10
2018-01-25T09:54:43.063Z,39.20
2018-01-25T09:57:10.595Z,38.30
2018-01-25T09:59:38.175Z,38.50
2018-01-25T10:02:06.199Z,37.80
2018-01-25T10:04:33.735Z,38.00
2018-01-25T10:07:01.308Z,38.10
2018-01-25T10:09:29.664Z,37.50
2018-01-25T10:11:57.223Z,37.40
2018-01-25T10:14:24.774Z,36.80
2018-01-25T10:16:52.335Z,37.40
2018-01-25T10:19:19.875Z,36.20
2018-01-25T10:21:47.407Z,36.50
2018-01-25T10:24:18.268Z,37.00
2018-01-25T10:26:45.900Z,37.10
2018-01-25T10:29:27.967Z,37.70
2018-01-25T10:34:35.168Z,39.30
2018-01-25T10:37:02.699Z,40.50
2018-01-25T10:39:30.227Z,41.00
2018-01-25T10:41:58.075Z,42.20
2018-01-25T10:44:25.619Z,42.70
2018-01-25T10:46:53.867Z,43.70
2018-01-25T10:49:21.435Z,45.20
2018-01-25T10:51:49.043Z,45.80
2018-01-25T10:54:16.574Z,46.50
2018-01-25T10:56:44.135Z,47.90
2018-01-25T10:59:11.671Z,48.30
2018-01-25T11:01:44.755Z,48.60
2018-01-25T11:04:12.638Z,50.40
2018-01-25T11:06:40.168Z,51.50
2018-01-25T11:09:07.724Z,51.80
2018-01-25T11:11:35.385Z,52.90
2018-01-25T11:14:02.957Z,53.30
2018-01-25T11:16:30.501Z,52.80
2018-01-25T11:18:58.064Z,52.50
2018-01-25T11:21:25.600Z,52.30
2018-01-25T11:23:53.434Z,53.30
2018-01-25T11:26:21.300Z,53.70
2018-01-25T11:28:48.832Z,53.70
2018-01-25T11:31:16.531Z,52.70
2018-01-25T11:33:44.100Z,53.10
2018-01-25T11:36:12.506Z,53.40
2018-01-25T11:38:40.056Z,53.30
2018-01-25T11:41:07.615Z,52.70
2018-01-25T11:43:35.196Z,52.50
2018-01-25T11:46:02.755Z,51.70
2018-01-25T11:48:30.803Z,50.80
2018-01-25T11:50:59.110Z,51.50
2018-01-25T11:53:26.647Z,51.50
2018-01-25T11:55:54.199Z,50.40
2018-01-25T11:58:22.503Z,51.50
2018-01-25T12:00:50.035Z,51.50
2018-01-25T12:03:17.599Z,50.60
2018-01-25T12:05:45.139Z,51.10
2018-01-25T12:08:14.359Z,49.70
2018-01-25T12:10:42.415Z,49.70
2018-01-25T12:13:09.939Z,49.90
2018-01-25T12:15:37.522Z,50.60
2018-01-25T12:18:05.084Z,50.50
2018-01-25T12:20:32.794Z,50.00
2018-01-25T12:23:00.327Z,50.90
2018-01-25T12:25:28.663Z,51.10
2018-01-25T12:27:56.191Z,51.10
2018-01-25T12:30:23.724Z,52.20
2018-01-25T12:32:52.563Z,51.70
2018-01-25T12:35:20.102Z,51.60
2018-01-25T12:37:47.643Z,51.40
2018-01-25T12:40:18.379Z,50.80
2018-01-25T12:42:45.948Z,50.80
2018-01-25T12:45:24.372Z,51.10
2018-01-25T12:51:07.751Z,49.70
2018-01-25T12:53:35.296Z,50.40
2018-01-25T12:56:02.827Z,49.80
2018-01-25T12:58:30.426Z,49.50
2018-01-25T13:00:57.958Z,50.00
2018-01-25T13:03:26.455Z,49.30
2018-01-25T13:05:54.029Z,48.60
2018-01-25T13:08:21.580Z,48.40
2018-01-25T13:10:49.119Z,47.20
2018-01-25T13:13:17.597Z,47.40
2018-01-25T13:15:45.192Z,48.80
2018-01-25T13:18:13.688Z,48.60
2018-01-25T13:20:41.271Z,49.10
2018-01-25T13:23:09.639Z,48.50
2018-01-25T13:25:37.972Z,48.50
2018-01-25T13:28:05.550Z,48.40
2018-01-25T13:30:33.135Z,47.90
2018-01-25T13:33:06.603Z,48.30
2018-01-25T13:35:34.224Z,49.70
2018-01-25T13:38:02.094Z,49.80
2018-01-25T13:40:29.703Z,50.40
2018-01-25T13:42:57.236Z,51.60
2018-01-25T13:45:24.799Z,52.50
2018-01-25T13:47:53.542Z,53.00
2018-01-25T13:50:21.900Z,53.70
2018-01-25T13:52:50.236Z,53.10
2018-01-25T13:55:18.412Z,53.40
2018-01-25T13:57:45.997Z,53.40
2018-01-25T14:00:25.708Z,55.30
2018-01-25T14:07:12.694Z,54.40
2018-01-25T14:09:41.328Z,54.70
2018-01-25T14:12:09.110Z,55.60
2018-01-25T14:14:38.244Z,54.70
2018-01-25T14:17:05.845Z,55.00
2018-01-25T14:19:33.391Z,55.90
2018-01-25T14:22:01.026Z,55.90
2018-01-25T14:24:28.563Z,56.00
2018-01-25T14:26:56.095Z,56.60
2018-01-25T14:29:23.683Z,56.90
2018-01-25T14:31:51.601Z,57.70
2018-01-25T14:34:19.199Z,58.20
2018-01-25T14:36:46.978Z,58.40
2018-01-25T14:39:16.323Z,59.30
2018-01-25T14:41:43.925Z,59.30
2018-01-25T14:44:12.483Z,60.30
2018-01-25T14:46:40.179Z,61.10
2018-01-25T14:49:07.800Z,61.70
2018-01-25T14:51:36.187Z,63.10
2018-01-25T14:54:04.223Z,63.10
2018-01-25T14:56:31.794Z,63.20
2018-01-25T14:58:59.418Z,63.30
2018-01-25T15:01:26.984Z,62.80
2018-01-25T15:03:54.563Z,63.10
2018-01-25T15:06:22.232Z,64.00
2018-01-25T15:08:49.872Z,63.70
2018-01-25T15:11:17.520Z,64.60
2018-01-25T15:13:45.109Z,65.00
2018-01-25T15:16:12.752Z,65.70
2018-01-25T15:18:40.336Z,65.50
2018-01-25T15:21:07.973Z,66.20
2018-01-25T15:23:35.772Z,65.90
2018-01-25T15:26:06.148Z,66.10
2018-01-25T15:28:33.791Z,66.60
2018-01-25T15:31:01.397Z,66.50
2018-01-25T15:33:28.970Z,67.40
2018-01-25T15:35:56.557Z,68.00
2018-01-25T15:38:24.875Z,68.70
2018-01-25T15:40:52.557Z,68.60
2018-01-25T15:43:20.179Z,69.10
2018-01-25T15:45:47.756Z,69.70
2018-01-25T15:48:16.468Z,69.80
2018-01-25T15:50:44.088Z,70.10
2018-01-25T15:53:11.632Z,70.60
2018-01-25T15:55:40.227Z,71.10
2018-01-25T15:58:07.816Z,71.10
2018-01-25T16:00:35.513Z,70.70
2018-01-25T16:03:03.056Z,71.00
2018-01-25T16:05:30.764Z,71.30
2018-01-25T16:07:59.123Z,71.20
2018-01-25T16:10:26.884Z,72.20
2018-01-25T16:12:54.493Z,72.20
2018-01-25T16:15:22.100Z,72.40
2018-01-25T16:17:50.050Z,72.30
2018-01-25T16:20:17.696Z,72.10
2018-01-25T16:22:45.301Z,72.50
2018-01-25T16:25:13.855Z,72.90
2018-01-25T16:27:41.831Z,73.30
2018-01-25T16:30:09.396Z,73.70
2018-01-25T16:32:39.844Z,74.40
2018-01-25T16:35:08.221Z,75.40
2018-01-25T16:37:36.552Z,75.30
2018-01-25T16:40:04.102Z,75.20
2018-01-25T16:42:31.675Z,75.80
2018-01-25T16:44:59.215Z,76.00
2018-01-25T16:47:26.755Z,76.30
2018-01-25T16:49:56.936Z,76.50
2018-01-25T16:52:24.475Z,76.40
2018-01-25T16:54:52.244Z,77.00
2018-01-25T16:57:24.214Z,77.40
2018-01-25T16:59:51.759Z,78.10
2018-01-25T17:02:19.313Z,78.70
2018-01-25T17:04:46.939Z,79.00
2018-01-25T17:07:15.487Z,79.20
2018-01-25T17:09:43.024Z,79.00
2018-01-25T17:12:11.675Z,79.60
2018-01-25T17:14:39.974Z,80.30
2018-01-25T17:17:07.520Z,80.30
2018-01-25T17:19:35.087Z,79.80
2018-01-25T17:22:03.455Z,79.60
2018-01-25T17:24:31.776Z,79.60
2018-01-25T17:27:00.176Z,79.50
2018-01-25T17:29:27.843Z,79.50
2018-01-25T17:31:55.436Z,78.90
2018-01-25T17:34:24.075Z,79.50
2018-01-25T17:36:51.663Z,79.50
2018-01-25T17:39:20.035Z,80.20
2018-01-25T17:41:47.603Z,80.20
2018-01-25T17:44:16.515Z,80.90
2018-01-25T17:46:44.877Z,81.50
2018-01-25T17:49:12.511Z,81.50
2018-01-25T17:51:40.048Z,82.20
2018-01-25T17:54:07.773Z,85.60
2018-01-25T17:56:35.468Z,87.20
2018-01-25T17:59:04.511Z,87.40
2018-01-25T18:01:32.188Z,87.90
2018-01-25T18:04:00.574Z,89.40
2018-01-25T18:06:28.147Z,89.40
2018-01-25T18:08:55.711Z,90.00
2018-01-25T18:11:23.302Z,90.20
2018-01-25T18:13:50.915Z,90.20
2018-01-25T18:16:18.521Z,90.50
2018-01-25T18:18:46.647Z,90.80
2018-01-25T18:21:25.317Z,90.80
2018-01-25T18:30:02.986Z,91.20
2018-01-25T18:32:30.787Z,91.70
2018-01-25T18:34:58.323Z,91.70
2018-01-25T18:37:26.791Z,92.20
2018-01-25T18:39:54.319Z,92.10
2018-01-25T18:42:21.906Z,92.20
2018-01-25T18:44:49.574Z,92.20
2018-01-25T18:47:17.159Z,92.00
2018-01-25T18:49:45.511Z,92.10
2018-01-25T18:52:24.545Z,91.80
2018-01-25T18:59:47.418Z,91.70
2018-01-25T19:02:26.337Z,92.10
2018-01-25T19:15:33.967Z,92.10
2018-01-25T19:18:01.606Z,92.90
2018-01-25T19:20:30.117Z,92.80
2018-01-25T19:22:57.782Z,92.70
2018-01-25T19:25:25.356Z,92.70
2018-01-25T19:27:52.944Z,92.70
2018-01-25T19:30:20.503Z,92.80
2018-01-25T19:32:48.179Z,92.80
2018-01-25T19:35:16.519Z,92.80
2018-01-25T19:37:44.165Z,92.90
2018-01-25T19:40:11.759Z,92.90
2018-01-25T19:42:39.425Z,92.90
2018-01-25T19:45:06.984Z,92.90
2018-01-25T19:47:34.524Z,93.00
2018-01-25T19:50:02.098Z,92.90
2018-01-25T19:52:29.763Z,92.90
2018-01-25T19:54:57.346Z,92.90
2018-01-25T19:57:24.930Z,92.60
2018-01-25T19:59:52.986Z,92.30
2018-01-25T20:02:21.339Z,91.90
2018-01-25T20:04:48.922Z,91.80
2018-01-25T20:07:16.537Z,92.00
2018-01-25T20:09:44.067Z,91.90
2018-01-25T20:12:13.510Z,91.80
2018-01-25T20:14:41.123Z,92.10
2018-01-25T20:17:09.431Z,91.60
2018-01-25T20:19:37.014Z,91.60
2018-01-25T20:22:04.648Z,91.60
2018-01-25T20:24:32.233Z,91.90
2018-01-25T20:26:59.818Z,92.00
2018-01-25T20:29:27.455Z,92.20
2018-01-25T20:31:55.071Z,92.10
2018-01-25T20:34:22.608Z,92.00
2018-01-25T20:36:50.167Z,92.00
2018-01-25T20:39:17.844Z,91.80
2018-01-25T20:41:46.462Z,91.80
2018-01-25T20:44:18.223Z,91.60
2018-01-25T20:46:45.806Z,91.60
2018-01-25T20:49:14.610Z,91.70
2018-01-25T20:51:42.218Z,91.70
2018-01-25T20:54:09.759Z,91.80
2018-01-25T20:56:38.102Z,92.30
2018-01-25T20:59:05.727Z,92.30
2018-01-25T21:01:34.118Z,92.30
2018-01-25T21:04:01.743Z,92.20
2018-01-25T21:06:30.576Z,92.00
2018-01-25T21:08:58.105Z,92.00
2018-01-25T21:11:25.707Z,92.10
2018-01-25T21:13:54.256Z,92.00
2018-01-25T21:16:22.650Z,92.30
2018-01-25T21:18:50.193Z,91.70
2018-01-25T21:21:17.798Z,91.40
2018-01-25T21:23:45.414Z,91.40
2018-01-25T21:26:24.621Z,91.20
2018-01-25T21:31:32.227Z,90.90
2018-01-25T21:34:00.603Z,90.90
2018-01-25T21:36:28.956Z,91.10
2018-01-25T21:38:56.538Z,91.00
2018-01-25T21:41:24.123Z,91.10
2018-01-25T21:43:51.667Z,91.30
2018-01-25T21:46:20.401Z,91.40
2018-01-25T21:48:47.994Z,91.30
2018-01-25T21:51:16.738Z,91.20
2018-01-25T21:53:49.012Z,91.40
2018-01-25T21:56:17.788Z,91.40
2018-01-25T21:58:45.375Z,91.40
2018-01-25T22:01:14.622Z,91.30
2018-01-25T22:03:42.661Z,91.30
2018-01-25T22:06:10.346Z,91.30
2018-01-25T22:08:37.941Z,91.40
2018-01-25T22:11:05.701Z,91.50
2018-01-25T22:13:33.324Z,91.70
2018-01-25T22:16:00.931Z,91.80
2018-01-25T22:18:28.505Z,91.80
2018-01-25T22:20:56.035Z,91.90
2018-01-25T22:23:23.680Z,91.90
2018-01-25T22:25:51.277Z,92.00
2018-01-25T22:28:18.807Z,92.10
2018-01-25T22:30:47.201Z,92.00
2018-01-25T22:33:16.499Z,92.00
2018-01-25T22:35:44.790Z,91.90
2018-01-25T22:38:12.358Z,91.80
2018-01-25T22:40:39.890Z,92.00
2018-01-25T22:43:07.419Z,92.00
2018-01-25T22:45:34.972Z,92.00
2018-01-25T22:48:02.499Z,92.20
2018-01-25T22:50:30.022Z,92.30
2018-01-25T22:52:58.254Z,92.30
2018-01-25T22:55:25.835Z,92.40
2018-01-25T22:57:53.367Z,92.60
2018-01-25T23:00:32.748Z,92.80
2018-01-25T23:03:00.280Z,92.70
2018-01-25T23:05:28.559Z,92.90
2018-01-25T23:07:56.111Z,93.20
2018-01-25T23:10:23.641Z,93.20
2018-01-25T23:12:51.213Z,93.00
2018-01-25T23:15:19.199Z,93.00
2018-01-25T23:17:46.778Z,93.10
2018-01-25T23:20:15.736Z,93.10
2018-01-25T23:22:43.299Z,93.00
2018-01-25T23:25:10.826Z,93.00
2018-01-25T23:27:38.362Z,93.00
2018-01-25T23:30:05.965Z,93.00
2018-01-25T23:32:33.535Z,93.00
2018-01-25T23:35:01.059Z,93.10
2018-01-25T23:37:29.705Z,93.00
2018-01-25T23:39:57.243Z,93.00
2018-01-25T23:42:24.771Z,93.00
2018-01-25T23:44:52.339Z,93.00
2018-01-25T23:47:19.866Z,93.00
2018-01-25T23:49:47.395Z,93.00
2018-01-25T23:52:16.450Z,93.20
2018-01-25T23:54:43.984Z,93.20
2018-01-25T23:57:11.521Z,93.10
2018-01-25T23:59:39.585Z,93.00
